createdAt,value
2019-01-31T00:02:39.981Z,2.60
2019-01-31T00:05:42.444Z,2.77
2019-01-31T00:08:49.563Z,2.20
2019-01-31T00:11:45.302Z,2.87
2019-01-31T00:14:40.004Z,3.60
2019-01-31T00:17:36.266Z,3.50
2019-01-31T00:20:30.514Z,3.17
2019-01-31T00:23:42.594Z,2.70
2019-01-31T00:26:52.011Z,2.47
2019-01-31T00:30:14.581Z,2.77
2019-01-31T00:33:21.082Z,2.53
2019-01-31T00:36:36.505Z,2.63
2019-01-31T00:39:40.939Z,2.67
2019-01-31T00:42:37.659Z,2.27
2019-01-31T00:45:28.703Z,2.20
2019-01-31T00:48:27.031Z,2.43
2019-01-31T00:51:20.674Z,2.67
2019-01-31T00:54:00.333Z,2.67
2019-01-31T00:57:19.896Z,3.30
2019-01-31T01:00:05.675Z,3.67
2019-01-31T01:02:44.370Z,3.40
2019-01-31T01:05:37.426Z,4.43
2019-01-31T01:08:45.158Z,4.07
2019-01-31T01:11:36.287Z,5.10
2019-01-31T01:14:50.479Z,5.83
2019-01-31T01:17:50.934Z,9.03
2019-01-31T01:21:07.023Z,13.27
2019-01-31T01:24:10.894Z,4.90
2019-01-31T01:27:25.512Z,4.90
2019-01-31T01:30:51.122Z,4.83
2019-01-31T01:34:02.723Z,5.77
2019-01-31T01:36:50.574Z,5.37
2019-01-31T01:40:04.212Z,4.93
2019-01-31T01:43:05.511Z,5.70
2019-01-31T01:46:08.926Z,4.67
2019-01-31T01:49:12.444Z,4.37
2019-01-31T01:52:07.947Z,4.10
2019-01-31T01:55:03.114Z,3.80
2019-01-31T01:58:08.574Z,3.97
2019-01-31T02:01:09.974Z,3.80
2019-01-31T02:04:11.234Z,4.10
2019-01-31T02:07:05.191Z,3.70
2019-01-31T02:10:21.517Z,4.00
2019-01-31T02:13:20.031Z,3.47
2019-01-31T02:16:24.966Z,3.90
2019-01-31T02:19:10.542Z,3.80
2019-01-31T02:22:36.153Z,3.90
2019-01-31T02:25:19.799Z,3.80
2019-01-31T02:28:22.327Z,3.60
2019-01-31T02:31:08.397Z,3.80
2019-01-31T02:34:23.882Z,4.60
2019-01-31T02:37:39.973Z,3.63
2019-01-31T02:40:40.463Z,3.93
2019-01-31T02:43:35.400Z,3.93
2019-01-31T02:46:42.044Z,3.90
2019-01-31T02:49:36.571Z,3.90
2019-01-31T02:52:22.470Z,3.50
2019-01-31T02:55:34.500Z,3.70
2019-01-31T02:58:33.599Z,3.73
2019-01-31T03:01:29.188Z,4.70
2019-01-31T03:04:43.397Z,4.33
2019-01-31T03:07:38.068Z,4.00
2019-01-31T03:10:39.477Z,4.80
2019-01-31T03:13:29.593Z,4.77
2019-01-31T03:16:13.314Z,4.93
2019-01-31T03:18:51.283Z,4.97
2019-01-31T03:22:06.662Z,4.70
2019-01-31T03:25:15.048Z,5.17
2019-01-31T03:28:16.554Z,4.17
2019-01-31T03:31:18.712Z,4.50
2019-01-31T03:34:31.515Z,4.50
2019-01-31T03:37:26.090Z,4.50
2019-01-31T03:40:47.809Z,4.60
2019-01-31T03:43:39.089Z,4.53
2019-01-31T03:47:04.770Z,5.17
2019-01-31T03:49:51.416Z,4.63
2019-01-31T03:53:00.783Z,5.50
2019-01-31T03:55:51.364Z,4.67
2019-01-31T03:59:00.711Z,5.03
2019-01-31T04:02:14.746Z,5.10
2019-01-31T04:04:54.163Z,5.00
2019-01-31T04:07:23.756Z,4.20
2019-01-31T04:09:53.262Z,4.23
2019-01-31T04:12:22.803Z,4.07
2019-01-31T04:14:52.320Z,5.23
2019-01-31T04:17:21.932Z,4.17
2019-01-31T04:19:51.449Z,4.00
2019-01-31T04:22:21.032Z,4.00
2019-01-31T04:24:50.573Z,4.30
2019-01-31T04:27:20.096Z,7.60
2019-01-31T04:29:49.778Z,4.30
2019-01-31T04:32:19.389Z,4.47
2019-01-31T04:34:49.035Z,4.10
2019-01-31T04:37:18.641Z,4.17
2019-01-31T04:39:48.218Z,4.27
2019-01-31T04:42:17.817Z,4.03
2019-01-31T04:44:47.410Z,4.63
2019-01-31T04:47:17.034Z,5.00
2019-01-31T04:49:46.518Z,4.57
2019-01-31T04:52:16.033Z,4.60
2019-01-31T04:54:45.642Z,4.70
2019-01-31T04:57:15.312Z,4.07
2019-01-31T04:59:44.852Z,4.13
2019-01-31T05:02:14.434Z,4.53
2019-01-31T05:04:44.022Z,4.10
2019-01-31T05:07:13.527Z,4.20
2019-01-31T05:09:43.100Z,3.93
2019-01-31T05:12:12.676Z,4.33
2019-01-31T05:14:42.231Z,4.50
2019-01-31T05:17:11.728Z,4.47
2019-01-31T05:19:41.247Z,4.83
2019-01-31T05:22:10.853Z,4.23
2019-01-31T05:24:40.433Z,4.40
2019-01-31T05:27:12.345Z,4.20
2019-01-31T05:29:41.905Z,4.70
2019-01-31T05:32:11.774Z,3.90
2019-01-31T05:34:41.302Z,4.00
2019-01-31T05:37:11.193Z,4.67
2019-01-31T05:39:40.870Z,4.17
2019-01-31T05:42:10.550Z,4.40
2019-01-31T05:44:40.086Z,5.10
2019-01-31T05:47:09.574Z,4.40
2019-01-31T05:49:39.126Z,4.23
2019-01-31T05:52:08.722Z,4.60
2019-01-31T05:54:38.244Z,4.13
2019-01-31T05:57:08.011Z,4.33
2019-01-31T05:59:37.612Z,4.53
2019-01-31T06:02:07.141Z,4.90
2019-01-31T06:04:36.723Z,4.63
2019-01-31T06:07:11.260Z,4.63
2019-01-31T06:09:37.580Z,5.73
2019-01-31T06:12:07.163Z,5.83
2019-01-31T06:14:36.767Z,6.47
2019-01-31T06:17:06.427Z,5.80
2019-01-31T06:19:36.031Z,5.47
2019-01-31T06:22:05.605Z,6.20
2019-01-31T06:24:35.193Z,5.43
2019-01-31T06:27:05.051Z,4.67
2019-01-31T06:29:34.637Z,5.30
2019-01-31T06:32:04.358Z,4.97
2019-01-31T06:34:33.990Z,4.77
2019-01-31T06:37:03.575Z,5.03
2019-01-31T06:39:33.207Z,6.10
2019-01-31T06:42:02.842Z,7.23
2019-01-31T06:44:32.438Z,7.80
2019-01-31T06:47:01.955Z,7.17
2019-01-31T06:49:31.485Z,6.40
2019-01-31T06:52:01.050Z,6.53
2019-01-31T06:54:30.873Z,6.90
2019-01-31T06:57:00.498Z,6.07
2019-01-31T06:59:30.066Z,6.23
2019-01-31T07:01:59.701Z,5.83
2019-01-31T07:04:29.343Z,5.77
2019-01-31T07:06:58.846Z,5.60
2019-01-31T07:09:28.409Z,5.20
2019-01-31T07:11:57.984Z,6.50
2019-01-31T07:14:27.485Z,6.27
2019-01-31T07:16:57.073Z,5.87
2019-01-31T07:19:26.563Z,6.57
2019-01-31T07:21:56.062Z,5.87
2019-01-31T07:24:25.564Z,5.60
2019-01-31T07:26:55.200Z,5.53
2019-01-31T07:29:24.832Z,5.40
2019-01-31T07:31:54.570Z,5.30
2019-01-31T07:34:24.189Z,5.43
2019-01-31T07:36:53.745Z,4.67
2019-01-31T07:39:23.265Z,4.57
2019-01-31T07:41:52.871Z,4.07
2019-01-31T07:44:22.354Z,4.93
2019-01-31T07:46:52.156Z,5.50
2019-01-31T07:49:21.611Z,5.00
2019-01-31T07:51:51.259Z,4.10
2019-01-31T07:54:20.758Z,4.23
2019-01-31T07:56:50.313Z,3.87
2019-01-31T07:59:19.959Z,3.57
2019-01-31T08:01:49.513Z,3.80
2019-01-31T08:04:19.033Z,3.73
2019-01-31T08:06:48.858Z,28.33
2019-01-31T08:09:18.432Z,4.50
2019-01-31T08:11:52.649Z,4.37
2019-01-31T08:14:19.255Z,4.00
2019-01-31T08:16:48.747Z,3.87
2019-01-31T08:19:18.306Z,3.90
2019-01-31T08:21:47.928Z,4.63
2019-01-31T08:24:19.078Z,4.60
2019-01-31T08:26:48.579Z,3.80
2019-01-31T08:29:18.084Z,4.00
2019-01-31T08:31:47.681Z,3.30
2019-01-31T08:34:17.158Z,4.10
2019-01-31T08:36:46.723Z,4.03
2019-01-31T08:39:16.210Z,3.93
2019-01-31T08:41:45.859Z,3.50
2019-01-31T08:44:15.409Z,4.00
2019-01-31T08:46:44.950Z,3.30
2019-01-31T08:49:14.511Z,3.90
2019-01-31T08:51:44.480Z,3.87
2019-01-31T08:54:14.139Z,3.97
2019-01-31T08:56:43.712Z,3.40
2019-01-31T08:59:13.223Z,3.80
2019-01-31T09:01:42.740Z,3.10
2019-01-31T09:04:12.406Z,3.20
2019-01-31T09:06:41.940Z,3.70
2019-01-31T09:09:13.623Z,3.73
2019-01-31T09:11:43.245Z,4.40
2019-01-31T09:14:12.702Z,3.37
2019-01-31T09:16:42.212Z,4.17
2019-01-31T09:19:11.820Z,4.73
2019-01-31T09:22:01.432Z,4.03
2019-01-31T09:24:52.896Z,4.00
2019-01-31T09:28:07.421Z,3.83
2019-01-31T09:31:06.200Z,5.00
2019-01-31T09:34:10.818Z,4.23
2019-01-31T09:36:57.816Z,4.70
2019-01-31T09:40:22.735Z,4.53
2019-01-31T09:46:52.714Z,4.00
2019-01-31T09:50:03.315Z,5.90
2019-01-31T09:53:08.479Z,4.20
2019-01-31T09:55:55.045Z,4.47
2019-01-31T09:58:40.563Z,3.60
2019-01-31T10:01:55.634Z,4.00
2019-01-31T10:04:31.128Z,4.23
2019-01-31T10:07:52.363Z,3.77
2019-01-31T10:10:56.419Z,4.50
2019-01-31T10:14:00.980Z,4.20
2019-01-31T10:16:38.767Z,4.47
2019-01-31T10:19:38.720Z,4.50
2019-01-31T10:22:52.427Z,5.03
2019-01-31T10:26:02.168Z,3.90
2019-01-31T10:29:02.631Z,4.20
2019-01-31T10:32:00.866Z,4.07
2019-01-31T10:34:58.889Z,4.27
2019-01-31T10:38:15.644Z,3.60
2019-01-31T10:41:12.759Z,4.00
2019-01-31T10:44:17.020Z,4.80
2019-01-31T10:47:33.981Z,4.80
2019-01-31T10:50:40.478Z,4.50
2019-01-31T10:53:41.322Z,4.50
2019-01-31T10:57:07.239Z,4.40
2019-01-31T10:59:47.400Z,4.40
2019-01-31T11:02:40.166Z,4.33
2019-01-31T11:05:47.717Z,4.77
2019-01-31T11:09:05.241Z,4.47
2019-01-31T11:12:13.840Z,4.37
2019-01-31T11:15:11.803Z,4.00
2019-01-31T11:18:05.739Z,4.30
2019-01-31T11:21:16.633Z,4.27
2019-01-31T11:24:06.420Z,4.20
2019-01-31T11:27:15.497Z,4.60
2019-01-31T11:30:35.007Z,4.57
2019-01-31T11:33:45.463Z,3.90
2019-01-31T11:37:05.291Z,4.23
2019-01-31T11:40:28.062Z,4.10
2019-01-31T11:43:26.433Z,4.40
2019-01-31T11:46:36.462Z,4.60
2019-01-31T11:49:31.511Z,3.70
2019-01-31T12:18:10.419Z,2.20
2019-01-31T12:20:40.162Z,2.30
2019-01-31T12:23:09.861Z,2.17
2019-01-31T12:25:39.663Z,1.93
2019-01-31T12:28:09.403Z,2.30
2019-01-31T12:30:39.061Z,2.77
2019-01-31T12:33:08.797Z,2.20
2019-01-31T12:35:38.323Z,2.13
2019-01-31T12:38:08.026Z,2.10
2019-01-31T12:40:38.116Z,2.00
2019-01-31T12:43:07.756Z,2.20
2019-01-31T12:45:37.754Z,2.37
2019-01-31T12:48:07.477Z,2.27
2019-01-31T12:50:37.092Z,1.97
2019-01-31T12:53:06.693Z,2.43
2019-01-31T12:55:36.292Z,2.07
2019-01-31T12:58:06.198Z,2.50
2019-01-31T13:00:35.822Z,2.57
2019-01-31T13:03:05.449Z,2.40
2019-01-31T13:05:35.148Z,2.10
2019-01-31T13:08:04.747Z,1.90
2019-01-31T13:10:35.362Z,2.47
2019-01-31T13:13:05.376Z,2.60
2019-01-31T13:15:35.083Z,1.90
2019-01-31T13:18:05.417Z,2.00
2019-01-31T13:20:35.037Z,2.30
2019-01-31T13:23:04.875Z,2.23
2019-01-31T13:25:34.750Z,2.37
2019-01-31T13:28:04.851Z,2.53
2019-01-31T13:30:34.551Z,2.63
2019-01-31T13:33:04.266Z,2.00
2019-01-31T13:35:34.102Z,2.30
2019-01-31T13:38:03.857Z,2.40
2019-01-31T13:40:33.546Z,2.17
2019-01-31T13:43:03.040Z,2.10
2019-01-31T13:45:34.809Z,2.00
2019-01-31T13:48:07.696Z,2.20
2019-01-31T13:50:37.538Z,2.10
2019-01-31T13:53:08.311Z,2.60
2019-01-31T13:55:37.853Z,2.13
2019-01-31T13:58:10.077Z,2.70
2019-01-31T14:00:38.813Z,2.93
2019-01-31T14:03:08.396Z,1.73
2019-01-31T14:05:37.974Z,2.20
2019-01-31T14:08:08.181Z,2.30
2019-01-31T14:10:37.813Z,2.60
2019-01-31T14:13:07.667Z,2.20
2019-01-31T14:15:37.785Z,2.27
2019-01-31T14:18:07.422Z,1.87
2019-01-31T14:20:37.070Z,2.00
2019-01-31T14:23:07.011Z,2.20
2019-01-31T14:25:36.792Z,2.30
2019-01-31T14:28:06.456Z,1.80
2019-01-31T14:30:37.944Z,1.80
2019-01-31T14:33:15.371Z,2.53
2019-01-31T14:35:45.002Z,2.07
2019-01-31T14:38:14.609Z,1.73
2019-01-31T14:40:44.280Z,2.03
2019-01-31T14:43:13.920Z,1.90
2019-01-31T14:45:43.850Z,2.00
2019-01-31T14:48:13.453Z,2.10
2019-01-31T14:50:43.400Z,2.00
2019-01-31T14:53:12.997Z,2.00
2019-01-31T14:55:42.679Z,2.20
2019-01-31T14:58:12.470Z,2.20
2019-01-31T15:00:42.107Z,2.53
2019-01-31T15:03:11.748Z,1.90
2019-01-31T15:05:41.462Z,2.10
2019-01-31T15:08:11.547Z,2.00
2019-01-31T15:10:41.296Z,1.80
2019-01-31T15:13:11.157Z,2.00
2019-01-31T15:15:40.947Z,2.30
2019-01-31T15:18:10.904Z,2.53
2019-01-31T15:20:43.361Z,2.27
2019-01-31T15:23:17.997Z,2.07
2019-01-31T15:25:47.698Z,2.43
2019-01-31T15:28:17.452Z,2.37
2019-01-31T15:30:47.260Z,2.00
2019-01-31T15:33:17.043Z,2.27
2019-01-31T15:35:47.103Z,2.80
2019-01-31T15:38:16.971Z,2.73
2019-01-31T15:40:48.412Z,3.03
2019-01-31T15:43:18.692Z,2.77
2019-01-31T15:45:48.446Z,2.60
2019-01-31T15:48:18.461Z,2.40
2019-01-31T15:50:48.160Z,2.97
2019-01-31T15:53:17.906Z,3.43
2019-01-31T15:55:47.565Z,2.83
2019-01-31T15:58:17.456Z,3.07
2019-01-31T16:00:49.655Z,3.40
2019-01-31T16:03:21.282Z,3.10
2019-01-31T16:05:52.770Z,2.40
2019-01-31T16:08:23.476Z,2.70
2019-01-31T16:10:53.458Z,3.33
2019-01-31T16:13:23.401Z,4.47
2019-01-31T16:15:54.550Z,6.90
2019-01-31T16:18:24.165Z,3.97
2019-01-31T16:20:53.940Z,3.90
2019-01-31T16:23:23.962Z,4.20
2019-01-31T16:25:53.690Z,5.53
2019-01-31T16:28:23.618Z,5.80
2019-01-31T16:30:53.276Z,19.53
2019-01-31T16:33:23.040Z,6.67
2019-01-31T16:35:53.879Z,6.33
2019-01-31T16:38:24.097Z,5.33
2019-01-31T16:40:53.952Z,5.57
2019-01-31T16:43:23.703Z,5.63
2019-01-31T16:45:53.935Z,5.50
2019-01-31T16:48:23.714Z,4.90
2019-01-31T16:50:53.614Z,4.90
2019-01-31T16:53:23.220Z,5.63
2019-01-31T16:55:55.061Z,5.40
2019-01-31T16:58:24.294Z,6.10
2019-01-31T17:00:53.985Z,6.50
2019-01-31T17:03:23.850Z,6.97
2019-01-31T17:05:53.494Z,6.63
2019-01-31T17:08:23.290Z,6.93
2019-01-31T17:10:52.936Z,6.10
2019-01-31T17:13:23.379Z,5.67
2019-01-31T17:15:53.055Z,5.53
2019-01-31T17:18:44.028Z,6.37
2019-01-31T17:21:13.574Z,5.03
2019-01-31T17:23:43.174Z,6.17
2019-01-31T17:26:12.820Z,10.10
2019-01-31T17:28:42.456Z,8.53
2019-01-31T17:31:12.323Z,6.40
2019-01-31T17:33:42.080Z,7.27
2019-01-31T17:36:11.755Z,6.53
2019-01-31T17:38:41.537Z,7.47
2019-01-31T17:41:11.282Z,7.57
2019-01-31T17:43:40.922Z,7.33
2019-01-31T17:46:11.794Z,8.00
2019-01-31T17:48:41.539Z,7.37
2019-01-31T17:51:12.758Z,7.03
2019-01-31T17:53:42.446Z,7.73
2019-01-31T17:56:12.256Z,7.83
2019-01-31T17:58:41.884Z,9.57
2019-01-31T18:01:11.578Z,10.37
2019-01-31T18:03:41.248Z,10.17
2019-01-31T18:06:10.938Z,9.57
2019-01-31T18:08:40.487Z,10.77
2019-01-31T18:11:10.096Z,10.47
2019-01-31T18:13:39.730Z,12.17
2019-01-31T18:16:09.338Z,7.67
2019-01-31T18:18:38.948Z,7.37
2019-01-31T18:21:08.523Z,7.90
2019-01-31T18:23:38.157Z,7.87
2019-01-31T18:26:07.777Z,8.47
2019-01-31T18:28:37.380Z,8.93
2019-01-31T18:31:06.951Z,9.17
2019-01-31T18:33:36.572Z,8.77
2019-01-31T18:36:06.165Z,8.70
2019-01-31T18:38:35.739Z,9.27
2019-01-31T18:41:05.375Z,8.77
2019-01-31T18:43:34.940Z,8.53
2019-01-31T18:46:04.735Z,8.80
2019-01-31T18:48:34.921Z,10.17
2019-01-31T18:51:07.599Z,8.73
2019-01-31T18:53:37.196Z,9.17
2019-01-31T18:56:06.955Z,9.63
2019-01-31T18:58:36.640Z,10.10
2019-01-31T19:01:06.293Z,11.57
2019-01-31T19:03:36.704Z,10.47
2019-01-31T19:06:06.410Z,10.87
2019-01-31T19:08:36.109Z,10.63
2019-01-31T19:11:05.821Z,11.73
2019-01-31T19:13:35.337Z,11.80
2019-01-31T19:16:05.875Z,11.60
2019-01-31T19:18:35.528Z,11.70
2019-01-31T19:21:05.393Z,11.23
2019-01-31T19:23:34.903Z,10.67
2019-01-31T19:26:04.571Z,11.07
2019-01-31T19:28:34.163Z,12.27
2019-01-31T19:31:03.816Z,13.53
2019-01-31T19:33:33.360Z,13.60
2019-01-31T19:36:02.876Z,13.30
2019-01-31T19:38:32.450Z,13.60
2019-01-31T19:41:02.061Z,12.83
2019-01-31T19:43:31.666Z,13.63
2019-01-31T19:46:01.438Z,13.87
2019-01-31T19:48:31.154Z,13.23
2019-01-31T19:51:00.856Z,47.77
2019-01-31T19:53:30.521Z,26.97
2019-01-31T19:56:00.123Z,13.20
2019-01-31T19:58:29.676Z,13.83
2019-01-31T20:00:59.327Z,13.63
2019-01-31T20:03:28.943Z,12.70
2019-01-31T20:05:58.526Z,13.73
2019-01-31T20:08:28.263Z,12.90
2019-01-31T20:10:58.376Z,12.87
2019-01-31T20:13:28.021Z,13.37
2019-01-31T20:15:57.855Z,12.73
2019-01-31T20:18:27.691Z,11.70
2019-01-31T20:20:58.787Z,13.43
2019-01-31T20:23:28.586Z,13.17
2019-01-31T20:25:58.234Z,12.87
2019-01-31T20:28:28.026Z,11.73
2019-01-31T20:30:57.832Z,12.20
2019-01-31T20:33:27.615Z,13.40
2019-01-31T20:35:57.251Z,12.70
2019-01-31T20:38:26.934Z,14.10
2019-01-31T20:40:56.449Z,13.00
2019-01-31T20:43:26.080Z,12.00
2019-01-31T20:45:55.761Z,12.50
2019-01-31T20:48:25.279Z,13.43
2019-01-31T20:50:55.275Z,12.37
2019-01-31T20:53:24.880Z,12.37
2019-01-31T20:55:54.484Z,13.33
2019-01-31T20:58:25.319Z,11.13
2019-01-31T21:00:54.995Z,12.77
2019-01-31T21:03:24.986Z,12.17
2019-01-31T21:05:54.533Z,10.53
2019-01-31T21:08:24.178Z,10.80
2019-01-31T21:10:53.806Z,13.23
2019-01-31T21:13:23.386Z,12.80
2019-01-31T21:15:53.251Z,18.00
2019-01-31T21:18:22.704Z,10.57
2019-01-31T21:20:52.274Z,10.57
2019-01-31T21:23:21.813Z,11.13
2019-01-31T21:25:51.456Z,10.80
2019-01-31T21:28:21.052Z,10.60
2019-01-31T21:30:50.649Z,10.70
2019-01-31T21:33:20.206Z,10.40
2019-01-31T21:35:49.839Z,11.23
2019-01-31T21:38:19.457Z,12.07
2019-01-31T21:40:49.082Z,11.07
2019-01-31T21:43:18.716Z,11.37
2019-01-31T21:45:48.344Z,10.33
2019-01-31T21:48:17.969Z,10.53
2019-01-31T21:50:47.871Z,11.03
2019-01-31T21:53:17.589Z,10.60
2019-01-31T21:55:47.282Z,10.07
2019-01-31T21:58:16.943Z,10.57
2019-01-31T22:00:46.564Z,9.90
2019-01-31T22:03:16.115Z,11.63
2019-01-31T22:05:46.018Z,10.47
2019-01-31T22:08:15.599Z,10.33
2019-01-31T22:10:45.252Z,11.23
2019-01-31T22:13:14.791Z,11.03
2019-01-31T22:15:44.442Z,10.13
2019-01-31T22:18:14.231Z,9.83
2019-01-31T22:20:43.851Z,10.33
2019-01-31T22:23:13.436Z,11.10
2019-01-31T22:25:43.037Z,10.87
2019-01-31T22:28:12.683Z,10.40
2019-01-31T22:30:42.292Z,11.43
2019-01-31T22:33:11.862Z,10.47
2019-01-31T22:35:41.483Z,18.07
2019-01-31T22:38:11.054Z,12.40
2019-01-31T22:40:40.645Z,9.97
2019-01-31T22:43:10.209Z,11.63
2019-01-31T22:45:39.789Z,10.50
2019-01-31T22:48:09.686Z,11.60
2019-01-31T22:50:39.539Z,9.53
2019-01-31T22:53:09.237Z,12.00
2019-01-31T22:55:40.329Z,12.20
2019-01-31T22:58:09.948Z,13.50
2019-01-31T23:01:40.235Z,12.37
2019-01-31T23:04:09.979Z,13.30
2019-01-31T23:06:39.562Z,13.67
2019-01-31T23:09:11.431Z,15.23
2019-01-31T23:11:41.032Z,17.80
2019-01-31T23:14:10.952Z,18.13
2019-01-31T23:16:40.576Z,16.20
2019-01-31T23:19:10.310Z,16.40
2019-01-31T23:21:39.807Z,15.57
2019-01-31T23:24:09.411Z,14.33
2019-01-31T23:26:39.004Z,14.47
2019-01-31T23:29:08.795Z,15.37
2019-01-31T23:31:38.424Z,16.10
2019-01-31T23:34:08.003Z,14.90
2019-01-31T23:36:37.723Z,15.83
2019-01-31T23:39:10.418Z,14.93
2019-01-31T23:41:40.649Z,15.50
2019-01-31T23:44:10.305Z,15.97
2019-01-31T23:46:39.903Z,14.50
2019-01-31T23:49:09.754Z,15.50
2019-01-31T23:51:39.287Z,15.20
2019-01-31T23:54:08.916Z,17.33
2019-01-31T23:56:38.466Z,15.70
2019-01-31T23:59:08.063Z,16.53
